createdAt,value
2019-02-12T00:01:27.368Z,102146.00
2019-02-12T00:03:55.153Z,102148.70
2019-02-12T00:06:22.892Z,102144.98
2019-02-12T00:08:50.673Z,102149.84
2019-02-12T00:11:18.505Z,102145.64
2019-02-12T00:13:46.264Z,102146.67
2019-02-12T00:16:14.108Z,102159.14
2019-02-12T00:18:41.858Z,102151.10
2019-02-12T00:21:09.653Z,102158.58
2019-02-12T00:23:37.461Z,102168.98
2019-02-12T00:26:05.275Z,102162.04
2019-02-12T00:28:33.109Z,102159.22
2019-02-12T00:31:00.974Z,102149.20
2019-02-12T00:33:28.876Z,102151.91
2019-02-12T00:35:56.712Z,102161.72
2019-02-12T00:38:24.532Z,102160.59
2019-02-12T00:40:52.319Z,102159.88
2019-02-12T00:43:20.116Z,102172.48
2019-02-12T00:45:47.874Z,102186.36
2019-02-12T00:48:15.688Z,102177.54
2019-02-12T00:50:43.466Z,102186.75
2019-02-12T00:53:11.288Z,102177.50
2019-02-12T00:55:39.040Z,102175.45
2019-02-12T00:58:06.804Z,102188.31
2019-02-12T01:00:34.563Z,102120.16
2019-02-12T01:03:02.445Z,102174.89
2019-02-12T01:05:30.267Z,102181.34
2019-02-12T01:07:58.015Z,102175.20
2019-02-12T01:10:25.789Z,102181.21
2019-02-12T01:12:53.652Z,102176.52
2019-02-12T01:15:21.529Z,102172.79
2019-02-12T01:17:49.287Z,102164.10
2019-02-12T01:20:17.067Z,102179.27
2019-02-12T01:22:44.889Z,102185.20
2019-02-12T01:25:12.652Z,102209.64
2019-02-12T01:27:40.428Z,102216.64
2019-02-12T01:30:10.321Z,102210.07
2019-02-12T01:32:38.440Z,102210.93
2019-02-12T01:35:06.212Z,102217.94
2019-02-12T01:37:33.957Z,102219.36
2019-02-12T01:40:01.835Z,102221.34
2019-02-12T01:42:29.649Z,102222.48
2019-02-12T01:44:57.481Z,102224.82
2019-02-12T01:47:25.251Z,102227.23
2019-02-12T01:49:52.989Z,102228.44
2019-02-12T01:52:20.778Z,102229.85
2019-02-12T01:54:48.582Z,102240.64
2019-02-12T01:57:16.350Z,102236.81
2019-02-12T01:59:44.131Z,102237.67
2019-02-12T02:02:11.873Z,102243.95
2019-02-12T02:04:39.680Z,102244.81
2019-02-12T02:07:07.446Z,102252.05
2019-02-12T02:09:35.225Z,102247.27
2019-02-12T02:18:21.919Z,102238.50
2019-02-12T02:20:49.810Z,102237.55
2019-02-12T02:23:17.556Z,102241.47
2019-02-12T02:25:45.381Z,102241.13
2019-02-12T02:28:13.181Z,102235.83
2019-02-12T02:30:40.925Z,102239.44
2019-02-12T02:33:09.043Z,102237.92
2019-02-12T02:35:36.805Z,102240.81
2019-02-12T02:38:04.622Z,102251.20
2019-02-12T02:40:32.416Z,102242.97
2019-02-12T02:43:00.319Z,102248.58
2019-02-12T02:45:28.188Z,102236.77
2019-02-12T02:47:56.019Z,102243.23
2019-02-12T02:50:23.796Z,102256.15
2019-02-12T02:52:51.564Z,102259.67
2019-02-12T02:55:19.311Z,102251.39
2019-02-12T02:57:47.068Z,102252.49
2019-02-12T03:00:14.903Z,102261.28
2019-02-12T03:02:42.697Z,102265.48
2019-02-12T03:05:10.596Z,102261.72
2019-02-12T03:07:38.409Z,102263.14
2019-02-12T03:10:06.345Z,102252.91
2019-02-12T03:12:34.180Z,102254.20
2019-02-12T03:15:01.934Z,102259.09
2019-02-12T03:17:29.760Z,102255.57
2019-02-12T03:19:57.665Z,102260.09
2019-02-12T03:22:25.508Z,102255.48
2019-02-12T03:24:53.321Z,102254.86
2019-02-12T03:27:21.094Z,102257.26
2019-02-12T03:29:48.888Z,102254.58
2019-02-12T03:32:16.726Z,102255.53
2019-02-12T03:34:44.608Z,102263.86
2019-02-12T03:37:12.436Z,102262.34
2019-02-12T03:39:40.189Z,102258.29
2019-02-12T03:42:07.974Z,102267.90
2019-02-12T03:44:35.764Z,102269.86
2019-02-12T03:47:03.509Z,102274.89
2019-02-12T03:49:31.403Z,102270.57
2019-02-12T03:51:59.156Z,102273.67
2019-02-12T03:54:26.942Z,102276.45
2019-02-12T03:56:54.818Z,102278.66
2019-02-12T03:59:22.548Z,102283.42
2019-02-12T04:01:50.292Z,102281.75
2019-02-12T04:04:18.182Z,102284.22
2019-02-12T04:06:45.933Z,102284.09
2019-02-12T04:09:13.696Z,102293.28
2019-02-12T04:11:53.429Z,102297.85
2019-02-12T04:14:21.192Z,102298.33
2019-02-12T04:16:48.927Z,102300.61
2019-02-12T04:19:16.693Z,102296.74
2019-02-12T04:21:44.469Z,102299.88
2019-02-12T04:24:12.276Z,102304.88
2019-02-12T04:26:40.058Z,102303.33
2019-02-12T04:29:07.821Z,102304.37
2019-02-12T04:31:35.673Z,102308.13
2019-02-12T04:34:03.479Z,102304.99
2019-02-12T04:36:31.322Z,102314.17
2019-02-12T04:38:59.138Z,102316.17
2019-02-12T04:41:26.892Z,102310.09
2019-02-12T04:43:54.726Z,102307.13
2019-02-12T04:46:22.482Z,102307.23
2019-02-12T04:48:50.252Z,102305.53
2019-02-12T04:51:18.036Z,102310.02
2019-02-12T04:53:45.790Z,102315.02
2019-02-12T04:56:13.580Z,102307.98
2019-02-12T04:58:41.316Z,102319.06
2019-02-12T05:01:09.079Z,102330.69
2019-02-12T05:03:36.984Z,102334.53
2019-02-12T05:06:04.835Z,102336.77
2019-02-12T05:08:51.980Z,102348.70
2019-02-12T05:11:19.827Z,102342.94
2019-02-12T05:13:47.853Z,102352.16
2019-02-12T05:16:15.684Z,102348.92
2019-02-12T05:18:43.521Z,102358.03
2019-02-12T05:21:11.264Z,102365.71
2019-02-12T05:23:39.052Z,102355.78
2019-02-12T05:26:06.820Z,102358.35
2019-02-12T05:28:34.666Z,102356.89
2019-02-12T05:31:02.629Z,102345.55
2019-02-12T05:33:30.597Z,102352.59
2019-02-12T05:35:58.483Z,102359.41
2019-02-12T05:38:26.415Z,102358.46
2019-02-12T05:40:54.267Z,102362.34
2019-02-12T05:43:22.068Z,102363.30
2019-02-12T05:45:49.928Z,102360.12
2019-02-12T05:48:17.757Z,102364.69
2019-02-12T05:50:45.721Z,102366.05
2019-02-12T05:53:14.113Z,102377.49
2019-02-12T05:55:41.996Z,102381.34
2019-02-12T05:58:09.915Z,102377.61
2019-02-12T06:00:37.870Z,102384.48
2019-02-12T06:03:05.655Z,102388.91
2019-02-12T06:05:33.484Z,102385.09
2019-02-12T06:08:01.292Z,102391.77
2019-02-12T06:10:29.148Z,102394.50
2019-02-12T06:12:56.886Z,102392.89
2019-02-12T06:15:24.701Z,102394.30
2019-02-12T06:17:52.634Z,102389.28
2019-02-12T06:20:20.585Z,102394.71
2019-02-12T06:22:48.673Z,102397.22
2019-02-12T06:25:16.414Z,102386.41
2019-02-12T06:27:44.165Z,102405.34
2019-02-12T06:30:11.904Z,102403.88
2019-02-12T06:32:39.762Z,102401.31
2019-02-12T06:35:07.824Z,102398.60
2019-02-12T06:37:35.560Z,102407.88
2019-02-12T06:40:03.705Z,102411.12
2019-02-12T06:42:31.534Z,102414.41
2019-02-12T06:44:59.438Z,102418.98
2019-02-12T06:47:27.209Z,102414.72
2019-02-12T06:49:54.965Z,102411.09
2019-02-12T06:52:22.751Z,102429.19
2019-02-12T06:54:50.521Z,102432.18
2019-02-12T06:57:18.294Z,102435.20
2019-02-12T06:59:46.150Z,102443.37
2019-02-12T07:02:32.241Z,102447.59
2019-02-12T07:05:00.024Z,102461.50
2019-02-12T07:08:02.575Z,102466.16
2019-02-12T07:10:33.316Z,102467.85
2019-02-12T07:13:16.502Z,102469.45
2019-02-12T07:16:00.433Z,102466.12
2019-02-12T07:18:46.460Z,102455.02
2019-02-12T07:21:42.864Z,102472.93
2019-02-12T07:24:35.920Z,102471.89
2019-02-12T07:27:31.945Z,102476.61
2019-02-12T07:30:12.661Z,102484.59
2019-02-12T07:32:50.056Z,102485.42
2019-02-12T07:35:46.324Z,102483.62
2019-02-12T07:38:39.541Z,102478.31
2019-02-12T07:41:24.481Z,102491.20
2019-02-12T07:44:04.298Z,102493.75
2019-02-12T07:46:50.457Z,102500.63
2019-02-12T07:49:28.525Z,102506.97
2019-02-12T07:52:21.895Z,102505.89
2019-02-12T07:54:52.976Z,102512.86
2019-02-12T07:57:45.916Z,102512.80
2019-02-12T08:00:17.981Z,102509.59
2019-02-12T08:03:11.294Z,102519.08
2019-02-12T08:05:51.287Z,102531.67
2019-02-12T08:08:47.649Z,102528.61
2019-02-12T08:11:18.252Z,102527.52
2019-02-12T08:14:02.314Z,102539.59
2019-02-12T08:16:42.767Z,102541.36
2019-02-12T08:19:24.784Z,102550.55
2019-02-12T08:22:30.357Z,102543.25
2019-02-12T08:25:04.143Z,102561.70
2019-02-12T08:27:57.006Z,102564.72
2019-02-12T08:30:46.396Z,102561.33
2019-02-12T08:33:33.433Z,102578.10
2019-02-12T08:36:20.452Z,102577.31
2019-02-12T08:39:07.606Z,102577.63
2019-02-12T08:41:53.475Z,102579.73
2019-02-12T08:44:25.666Z,102578.52
2019-02-12T08:47:18.869Z,102571.64
2019-02-12T08:50:05.899Z,102572.37
2019-02-12T08:52:52.941Z,102587.08
2019-02-12T08:55:24.493Z,102577.92
2019-02-12T08:58:05.219Z,102577.03
2019-02-12T09:00:51.964Z,102584.53
2019-02-12T09:03:43.577Z,102589.21
2019-02-12T09:06:15.790Z,102591.77
2019-02-12T09:09:01.576Z,102596.88
2019-02-12T09:11:51.737Z,102604.61
2019-02-12T09:14:38.789Z,102605.37
2019-02-12T09:17:35.079Z,102601.12
2019-02-12T09:20:22.116Z,102612.45
2019-02-12T09:23:08.164Z,102620.31
2019-02-12T09:25:38.975Z,102621.36
2019-02-12T09:28:13.125Z,102621.52
2019-02-12T09:31:09.106Z,102616.97
2019-02-12T09:33:50.224Z,102625.70
2019-02-12T09:36:40.386Z,102621.30
2019-02-12T09:39:35.281Z,102631.25
2019-02-12T09:42:21.888Z,102631.36
2019-02-12T09:44:56.163Z,102637.63
2019-02-12T09:47:43.266Z,102638.45
2019-02-12T09:50:17.234Z,102651.05
2019-02-12T09:53:07.368Z,102647.89
2019-02-12T09:55:57.303Z,102668.83
2019-02-12T09:58:28.814Z,102673.30
2019-02-12T10:00:59.364Z,102676.62
2019-02-12T10:03:33.428Z,102677.14
2019-02-12T10:06:22.226Z,102681.61
2019-02-12T10:09:09.650Z,102680.08
2019-02-12T10:11:55.397Z,102677.28
2019-02-12T10:14:41.435Z,102683.42
2019-02-12T10:17:28.540Z,102689.00
2019-02-12T10:20:03.289Z,102691.19
2019-02-12T10:22:52.201Z,102693.82
2019-02-12T10:25:28.849Z,102703.69
2019-02-12T10:27:59.605Z,102707.56
2019-02-12T10:30:49.460Z,102711.48
2019-02-12T10:33:17.404Z,102712.17
2019-02-12T10:35:45.184Z,102715.25
2019-02-12T10:40:40.712Z,102714.73
2019-02-12T10:43:08.530Z,102706.80
2019-02-12T10:45:36.277Z,102709.66
2019-02-12T10:48:04.023Z,102709.86
2019-02-12T10:50:31.792Z,102711.86
2019-02-12T10:52:59.570Z,102711.29
2019-02-12T10:55:27.313Z,102708.50
2019-02-12T10:57:55.084Z,102705.98
2019-02-12T11:00:22.858Z,102699.52
2019-02-12T11:02:50.699Z,102702.63
2019-02-12T11:05:18.527Z,102715.61
2019-02-12T11:07:46.360Z,102708.20
2019-02-12T11:10:14.119Z,102709.19
2019-02-12T11:12:41.885Z,102714.32
2019-02-12T11:15:09.733Z,102709.83
2019-02-12T11:17:38.643Z,102716.75
2019-02-12T11:20:06.444Z,102714.83
2019-02-12T11:22:34.206Z,102714.95
2019-02-12T11:25:01.965Z,102705.52
2019-02-12T11:27:29.809Z,102708.61
2019-02-12T11:29:57.581Z,102705.13
2019-02-12T11:32:25.518Z,102697.20
2019-02-12T11:34:53.379Z,102703.80
2019-02-12T11:37:21.142Z,102705.50
2019-02-12T11:39:48.987Z,102705.77
2019-02-12T11:42:16.730Z,102710.34
2019-02-12T11:44:44.555Z,102688.73
2019-02-12T11:47:12.339Z,102702.08
2019-02-12T11:49:40.156Z,102697.48
2019-02-12T11:52:08.121Z,102707.29
2019-02-12T11:54:43.440Z,102704.61
2019-02-12T11:57:05.392Z,102687.56
2019-02-12T11:59:33.189Z,102697.58
2019-02-12T12:02:00.945Z,102693.97
2019-02-12T12:04:28.850Z,102696.16
2019-02-12T12:06:56.743Z,102694.91
2019-02-12T12:09:24.501Z,102706.56
2019-02-12T12:11:52.340Z,102700.30
2019-02-12T12:14:20.110Z,102701.41
2019-02-12T12:16:47.849Z,102700.09
2019-02-12T12:19:15.666Z,102689.12
2019-02-12T12:21:43.485Z,102697.97
2019-02-12T12:24:11.291Z,102703.26
2019-02-12T12:26:39.032Z,102695.90
2019-02-12T12:29:06.828Z,102704.97
2019-02-12T12:31:34.617Z,102717.68
2019-02-12T12:34:02.505Z,102719.62
2019-02-12T12:36:30.332Z,102728.70
2019-02-12T12:38:58.081Z,102724.98
2019-02-12T12:41:25.917Z,102725.67
2019-02-12T12:43:53.662Z,102727.11
2019-02-12T12:46:21.431Z,102726.45
2019-02-12T12:48:49.176Z,102742.73
2019-02-12T12:51:17.035Z,102714.87
2019-02-12T12:53:44.865Z,102735.64
2019-02-12T12:56:12.988Z,102745.09
2019-02-12T12:58:40.798Z,102736.08
2019-02-12T13:01:08.613Z,102742.54
2019-02-12T13:03:36.469Z,102739.23
2019-02-12T13:06:04.279Z,102738.64
2019-02-12T13:08:32.023Z,102730.07
2019-02-12T13:11:00.116Z,102728.50
2019-02-12T13:13:27.887Z,102731.87
2019-02-12T13:15:56.005Z,102730.86
2019-02-12T13:18:23.841Z,102740.81
2019-02-12T13:20:51.603Z,102734.85
2019-02-12T13:23:19.356Z,102742.11
2019-02-12T13:25:47.186Z,102738.28
2019-02-12T13:28:15.024Z,102743.56
2019-02-12T13:30:42.881Z,102745.56
2019-02-12T13:33:10.705Z,102734.74
2019-02-12T13:35:38.479Z,102753.34
2019-02-12T13:38:06.232Z,102754.78
2019-02-12T13:40:34.026Z,102764.70
2019-02-12T13:43:01.780Z,102763.84
2019-02-12T13:45:29.560Z,102764.20
2019-02-12T13:47:57.558Z,102759.86
2019-02-12T13:50:25.384Z,102758.22
2019-02-12T13:52:53.161Z,102764.05
2019-02-12T13:55:22.606Z,102759.99
2019-02-12T13:57:50.607Z,102763.19
2019-02-12T14:00:18.387Z,102769.95
2019-02-12T14:02:46.164Z,102773.62
2019-02-12T14:05:14.924Z,102770.15
2019-02-12T14:07:42.772Z,102766.63
2019-02-12T14:10:10.697Z,102781.36
2019-02-12T14:12:38.484Z,102770.72
2019-02-12T14:15:06.828Z,102762.89
2019-02-12T14:17:34.624Z,102762.02
2019-02-12T14:20:02.489Z,102767.50
2019-02-12T14:22:30.405Z,102757.83
2019-02-12T14:24:58.173Z,102766.06
2019-02-12T14:27:25.917Z,102772.70
2019-02-12T14:29:53.961Z,102782.48
2019-02-12T14:32:21.712Z,102775.41
2019-02-12T14:34:49.468Z,102768.75
2019-02-12T14:37:17.277Z,102770.48
2019-02-12T14:39:45.016Z,102769.52
2019-02-12T14:42:12.788Z,102763.35
2019-02-12T14:44:40.650Z,102772.05
2019-02-12T14:47:08.705Z,102775.51
2019-02-12T14:49:36.555Z,102775.98
2019-02-12T14:52:04.387Z,102779.94
2019-02-12T14:54:32.184Z,102775.91
2019-02-12T14:56:59.971Z,102775.48
2019-02-12T14:59:27.760Z,102769.52
2019-02-12T15:01:55.526Z,102770.73
2019-02-12T15:04:23.815Z,102769.41
2019-02-12T15:06:51.628Z,102773.80
2019-02-12T15:09:19.550Z,102776.94
2019-02-12T15:11:47.326Z,102790.38
2019-02-12T15:14:15.092Z,102793.33
2019-02-12T15:16:42.931Z,102794.02
2019-02-12T15:19:10.768Z,102793.64
2019-02-12T15:21:38.572Z,102787.44
2019-02-12T15:24:07.817Z,102792.69
2019-02-12T15:26:35.955Z,102784.78
2019-02-12T15:29:04.649Z,102782.42
2019-02-12T15:31:32.484Z,102696.78
2019-02-12T15:34:00.225Z,102783.41
2019-02-12T15:36:27.996Z,102783.36
2019-02-12T15:38:55.734Z,102783.36
2019-02-12T15:41:23.552Z,102781.61
2019-02-12T15:43:51.387Z,102783.39
2019-02-12T15:46:19.148Z,102782.86
2019-02-12T15:48:46.930Z,102789.63
2019-02-12T15:51:14.846Z,102789.19
2019-02-12T15:53:43.027Z,102796.73
2019-02-12T15:56:10.942Z,102795.39
2019-02-12T15:58:38.754Z,102781.05
2019-02-12T16:01:06.574Z,102795.97
2019-02-12T16:03:36.063Z,102785.16
2019-02-12T16:06:03.917Z,102789.65
2019-02-12T16:08:32.105Z,102787.94
2019-02-12T16:11:00.121Z,102789.19
2019-02-12T16:13:27.873Z,102788.36
2019-02-12T16:15:55.692Z,102785.16
2019-02-12T16:18:24.925Z,102762.73
2019-02-12T16:20:52.826Z,102792.30
2019-02-12T16:23:20.607Z,102791.84
2019-02-12T16:25:48.429Z,102794.58
2019-02-12T16:28:16.249Z,102794.20
2019-02-12T16:30:44.055Z,102795.48
2019-02-12T16:33:12.350Z,102799.50
2019-02-12T16:35:40.187Z,102801.28
2019-02-12T16:38:09.421Z,102796.33
2019-02-12T16:40:37.224Z,102799.47
2019-02-12T16:43:05.025Z,102794.98
2019-02-12T16:45:38.347Z,102795.05
2019-02-12T16:48:06.177Z,102789.30
2019-02-12T16:50:34.336Z,102779.88
2019-02-12T16:53:02.548Z,102781.72
2019-02-12T16:55:30.493Z,102793.84
2019-02-12T16:57:58.375Z,102785.84
2019-02-12T17:00:26.203Z,102790.75
2019-02-12T17:03:00.491Z,102786.31
2019-02-12T17:05:38.192Z,102666.00
2019-02-12T17:08:06.090Z,102777.38
2019-02-12T17:10:33.938Z,102775.60
2019-02-12T17:13:01.736Z,102776.94
2019-02-12T17:15:29.572Z,102785.48
2019-02-12T17:17:57.420Z,102774.67
2019-02-12T17:20:25.366Z,102781.45
2019-02-12T17:22:53.152Z,102778.80
2019-02-12T17:25:21.041Z,102776.57
2019-02-12T17:27:48.822Z,102769.37
2019-02-12T17:30:16.629Z,102775.70
2019-02-12T17:32:44.512Z,102780.20
2019-02-12T17:35:12.248Z,102784.68
2019-02-12T17:37:39.998Z,102782.44
2019-02-12T17:40:08.719Z,102790.08
2019-02-12T17:42:36.702Z,102783.37
2019-02-12T17:45:04.635Z,102779.31
2019-02-12T17:47:32.381Z,102719.72
2019-02-12T17:50:00.299Z,102773.58
2019-02-12T17:52:28.068Z,102770.83
2019-02-12T17:54:55.863Z,102774.83
2019-02-12T17:57:23.628Z,102773.56
2019-02-12T17:59:51.389Z,102770.88
2019-02-12T18:02:19.169Z,102769.95
2019-02-12T18:04:47.325Z,102785.63
2019-02-12T18:07:15.369Z,102785.57
2019-02-12T18:09:43.118Z,102782.91
2019-02-12T18:12:10.912Z,102779.37
2019-02-12T18:14:38.723Z,102783.45
2019-02-12T18:17:06.719Z,102781.64
2019-02-12T18:19:34.564Z,102778.05
2019-02-12T18:22:02.481Z,102772.25
2019-02-12T18:24:30.350Z,102773.08
2019-02-12T18:26:58.235Z,102773.48
2019-02-12T18:29:26.027Z,102765.99
2019-02-12T18:31:55.309Z,102770.48
2019-02-12T18:34:23.155Z,102763.75
2019-02-12T18:36:50.936Z,102757.91
2019-02-12T18:39:18.690Z,102757.91
2019-02-12T18:41:47.125Z,102763.78
2019-02-12T18:44:15.147Z,102762.44
2019-02-12T18:46:43.013Z,102763.31
2019-02-12T18:49:11.313Z,102762.85
2019-02-12T18:51:39.191Z,102761.97
2019-02-12T18:54:07.037Z,102757.50
2019-02-12T18:56:41.433Z,102755.72
2019-02-12T18:59:04.324Z,102757.03
2019-02-12T19:01:32.176Z,102754.73
2019-02-12T19:04:00.164Z,102752.11
2019-02-12T19:06:28.302Z,102740.05
2019-02-12T19:08:56.099Z,102753.85
2019-02-12T19:11:23.849Z,102732.00
2019-02-12T19:13:51.690Z,102743.65
2019-02-12T19:16:19.638Z,102744.61
2019-02-12T19:18:47.524Z,102731.57
2019-02-12T19:21:16.491Z,102734.23
2019-02-12T19:23:44.375Z,102742.30
2019-02-12T19:26:12.343Z,102738.30
2019-02-12T19:28:40.225Z,102743.20
2019-02-12T19:31:08.014Z,102740.52
2019-02-12T19:33:35.763Z,102727.53
2019-02-12T19:36:03.680Z,102734.70
2019-02-12T19:38:31.740Z,102731.59
2019-02-12T19:40:59.616Z,102732.93
2019-02-12T19:43:27.360Z,102737.91
2019-02-12T19:45:55.176Z,102730.67
2019-02-12T19:48:22.975Z,102737.00
2019-02-12T19:50:50.894Z,102739.23
2019-02-12T19:53:18.711Z,102737.39
2019-02-12T19:55:46.657Z,102738.75
2019-02-12T19:58:14.448Z,102744.18
2019-02-12T20:00:42.212Z,102736.09
2019-02-12T20:03:09.998Z,102735.61
2019-02-12T20:05:37.781Z,102728.95
2019-02-12T20:08:05.569Z,102731.57
2019-02-12T20:10:33.391Z,102734.72
2019-02-12T20:13:01.160Z,102725.33
2019-02-12T20:15:28.976Z,102729.33
2019-02-12T20:17:56.757Z,102732.91
2019-02-12T20:20:24.558Z,102729.77
2019-02-12T20:22:52.462Z,102742.33
2019-02-12T20:25:20.359Z,102748.63
2019-02-12T20:27:48.139Z,102741.89
2019-02-12T20:30:15.977Z,102735.64
2019-02-12T20:32:43.806Z,102740.14
2019-02-12T20:35:11.910Z,102735.19
2019-02-12T20:37:39.681Z,102737.38
2019-02-12T20:40:07.899Z,102735.20
2019-02-12T20:42:35.688Z,102741.93
2019-02-12T20:45:03.860Z,102736.53
2019-02-12T20:47:31.661Z,102737.86
2019-02-12T20:49:59.427Z,102737.89
2019-02-12T20:52:27.519Z,102745.49
2019-02-12T20:54:55.422Z,102753.51
2019-02-12T20:57:23.293Z,102752.17
2019-02-12T20:59:51.042Z,102749.03
2019-02-12T21:02:18.971Z,102749.51
2019-02-12T21:04:46.740Z,102741.87
2019-02-12T21:07:14.618Z,102754.01
2019-02-12T21:09:42.411Z,102767.36
2019-02-12T21:12:10.308Z,102762.92
2019-02-12T21:14:38.172Z,102768.30
2019-02-12T21:17:05.932Z,102772.77
2019-02-12T21:19:33.809Z,102755.33
2019-02-12T21:22:02.202Z,102740.98
2019-02-12T21:24:30.128Z,102755.31
2019-02-12T21:27:01.292Z,102753.11
2019-02-12T21:29:29.095Z,102756.70
2019-02-12T21:31:56.907Z,102750.00
2019-02-12T21:34:24.674Z,102755.83
2019-02-12T21:36:52.591Z,102748.63
2019-02-12T21:39:22.727Z,102749.51
2019-02-12T21:41:50.478Z,102751.75
2019-02-12T21:44:18.358Z,102749.03
2019-02-12T21:46:46.123Z,102758.91
2019-02-12T21:49:13.890Z,102725.30
2019-02-12T21:51:41.648Z,102753.06
2019-02-12T21:54:09.383Z,102755.39
2019-02-12T21:56:37.260Z,102749.48
2019-02-12T21:59:05.109Z,102745.47
2019-02-12T22:01:32.887Z,102736.97
2019-02-12T22:04:01.028Z,102738.33
2019-02-12T22:06:28.848Z,102744.12
2019-02-12T22:08:56.597Z,102743.69
2019-02-12T22:11:24.332Z,102742.33
2019-02-12T22:13:52.165Z,102738.77
2019-02-12T22:16:19.982Z,102741.43
2019-02-12T22:18:47.730Z,102753.53
2019-02-12T22:21:15.482Z,102751.77
2019-02-12T22:23:43.369Z,102762.08
2019-02-12T22:26:11.205Z,102754.01
2019-02-12T22:28:38.995Z,102756.23
2019-02-12T22:31:06.851Z,102747.28
2019-02-12T22:33:34.709Z,102740.12
2019-02-12T22:36:02.475Z,102754.45
2019-02-12T22:38:30.223Z,102757.09
2019-02-12T22:40:58.031Z,102752.17
2019-02-12T22:43:25.857Z,102767.80
2019-02-12T22:45:53.742Z,102770.11
2019-02-12T22:48:21.549Z,102762.44
2019-02-12T22:50:49.402Z,102759.30
2019-02-12T22:53:17.229Z,102762.45
2019-02-12T22:55:45.021Z,102778.55
2019-02-12T22:58:12.780Z,102779.86
2019-02-12T23:00:53.307Z,102785.27
2019-02-12T23:03:21.117Z,102783.45
2019-02-12T23:05:48.909Z,102776.74
2019-02-12T23:08:16.849Z,102774.59
2019-02-12T23:10:44.616Z,102769.60
2019-02-12T23:13:12.379Z,102763.83
2019-02-12T23:15:40.166Z,102761.98
2019-02-12T23:18:08.012Z,102764.17
2019-02-12T23:20:35.814Z,102765.02
2019-02-12T23:23:03.749Z,102753.88
2019-02-12T23:25:31.530Z,102754.27
2019-02-12T23:27:59.358Z,102758.76
2019-02-12T23:30:27.513Z,102766.42
2019-02-12T23:32:55.292Z,102762.78
2019-02-12T23:35:23.063Z,102755.22
2019-02-12T23:37:50.997Z,102747.67
2019-02-12T23:40:18.901Z,102735.53
2019-02-12T23:43:17.201Z,102743.64
2019-02-12T23:45:44.973Z,102749.85
2019-02-12T23:48:12.986Z,102741.34
2019-02-12T23:51:23.574Z,102748.55
2019-02-12T23:53:51.496Z,102758.30
2019-02-12T23:56:19.839Z,102757.47
2019-02-12T23:58:47.861Z,102752.56
